Værinformasjon

ENOV 301950Z VRB01KT 9999 -DZ FEW003 SCT009 BKN012 03/02 Q1010 RMK WIND 2175FT 27005KT


ENSD 302020Z VRB02KT 9999 SCT010 BKN027 03/02 Q1011 RMK WIND 1138FT 29004KT


ENAL 302020Z 28003KT 9999 FEW006 SCT016 BKN020 05/04 Q1010


ENML 302020Z AUTO 29006KT 260V320 4500NDV SHRA FEW006/// BKN016/// 05/04 Q1010